Time;durP1;ratioP1;P1;durP2;ratioP2;P2;SDS_P1;SDS_P2;PMS_P1;PMS_P2;Temp;Humidity;BMP_temperature;BMP_pressure;BME280_temperature;BME280_humidity;BME280_pressure;Samples;Min_cycle;Max_cycle;Signal;HPM_P1;HPM_P2
2021/05/10 00:00:04;;;;;;;2.85;0.88;;;;;;;19.87;35.15;99661.56;7979818;28;20037;-66
2021/05/10 00:04:02;;;;;;;1.63;0.90;;;;;;;19.83;35.04;99645.13;7977181;28;20598;-66
2021/05/10 00:07:53;;;;;;;1.23;1.00;;;;;;;19.84;35.12;99640.63;7975597;28;20478;-66
2021/05/10 00:11:44;;;;;;;2.47;0.90;;;;;;;19.80;35.05;99631.34;7984539;28;20037;-66
2021/05/10 00:15:35;;;;;;;1.08;0.80;;;;;;;19.80;34.94;99637.50;7975070;28;20050;-66
2021/05/10 00:19:26;;;;;;;1.63;1.20;;;;;;;19.80;35.29;99628.69;7983429;28;20574;-66
2021/05/10 00:23:17;;;;;;;1.08;0.90;;;;;;;19.78;35.06;99625.38;7981386;28;20563;-66
2021/05/10 00:27:08;;;;;;;7.45;1.40;;;;;;;19.76;35.13;99628.22;7978585;28;20029;-66
2021/05/10 00:30:59;;;;;;;1.35;0.80;;;;;;;19.76;35.30;99630.09;7980460;28;20398;-66
2021/05/10 00:34:50;;;;;;;0.80;0.80;;;;;;;19.74;34.83;99632.94;7980225;28;20042;-66
2021/05/10 00:38:41;;;;;;;0.80;0.80;;;;;;;19.72;35.22;99637.59;7978599;28;20037;-66
2021/05/10 00:42:31;;;;;;;2.05;0.82;;;;;;;19.68;34.97;99624.88;7981461;28;20124;-66
2021/05/10 00:46:23;;;;;;;1.80;0.90;;;;;;;19.67;35.05;99620.56;7976055;28;20600;-66
2021/05/10 00:50:14;;;;;;;1.23;1.00;;;;;;;19.62;34.91;99620.31;7974654;28;20040;-66
2021/05/10 00:54:05;;;;;;;2.15;0.93;;;;;;;19.59;35.01;99600.22;7975073;28;20044;-66
2021/05/10 00:58:02;;;;;;;3.80;1.15;;;;;;;19.57;34.70;99617.38;7974990;28;20037;-66
2021/05/10 01:01:53;;;;;;;2.00;1.00;;;;;;;19.51;34.96;99594.19;7974557;28;20553;-66
2021/05/10 01:05:46;;;;;;;2.85;1.05;;;;;;;19.49;35.19;99597.03;7981197;28;20446;-66
2021/05/10 01:09:36;;;;;;;3.03;1.20;;;;;;;19.50;35.02;99584.53;7985095;28;20040;-66
2021/05/10 01:13:27;;;;;;;1.50;0.80;;;;;;;19.46;34.82;99589.41;7983165;28;20037;-66
2021/05/10 01:17:18;;;;;;;2.75;0.80;;;;;;;19.48;35.23;99592.69;7982049;28;20521;-66
2021/05/10 01:21:10;;;;;;;1.27;0.90;;;;;;;19.48;34.77;99581.22;7983350;28;20030;-66
2021/05/10 01:25:02;;;;;;;0.85;0.80;;;;;;;19.50;35.02;99595.19;7992719;28;20057;-66
2021/05/10 01:28:53;;;;;;;6.38;0.90;;;;;;;19.50;35.03;99595.19;7981865;28;20816;-66
2021/05/10 01:32:45;;;;;;;7.28;1.30;;;;;;;19.49;34.66;99602.34;7980092;28;20502;-66
2021/05/10 01:36:35;;;;;;;1.15;1.02;;;;;;;19.51;34.72;99611.00;7980920;28;20045;-66
2021/05/10 01:40:27;;;;;;;8.35;1.80;;;;;;;19.48;34.80;99598.03;7986205;28;20087;-66
2021/05/10 01:44:18;;;;;;;17.75;3.28;;;;;;;19.52;34.78;99601.13;7985454;28;21344;-66
2021/05/10 01:48:10;;;;;;;43.55;4.43;;;;;;;19.51;34.60;99599.50;7985591;28;20033;-66
2021/05/10 01:52:01;;;;;;;16.10;2.50;;;;;;;19.57;34.44;99593.41;7985368;28;20378;-66
2021/05/10 01:55:52;;;;;;;20.42;2.40;;;;;;;19.61;34.65;99587.50;7983120;28;20596;-66
2021/05/10 01:59:42;;;;;;;21.15;3.10;;;;;;;19.64;34.28;99591.66;7982631;28;20051;-66
2021/05/10 02:03:33;;;;;;;24.20;3.38;;;;;;;19.65;34.28;99585.28;7980147;28;20606;-66
2021/05/10 02:07:24;;;;;;;6.72;1.50;;;;;;;19.68;34.27;99579.59;7979239;28;20103;-66
2021/05/10 02:11:14;;;;;;;5.57;0.80;;;;;;;19.68;34.35;99584.94;7985971;28;20051;-66
2021/05/10 02:15:10;;;;;;;5.78;1.30;;;;;;;19.67;34.48;99570.78;7980278;28;20079;-66
2021/05/10 02:19:01;;;;;;;4.82;1.00;;;;;;;19.67;34.29;99573.44;7978451;28;20410;-66
2021/05/10 02:22:58;;;;;;;1.90;0.82;;;;;;;19.65;34.42;99564.81;7978747;28;20033;-66
2021/05/10 02:26:48;;;;;;;1.27;0.93;;;;;;;19.63;34.50;99556.19;7977893;28;20068;-66
2021/05/10 02:30:41;;;;;;;2.90;1.10;;;;;;;19.61;34.50;99566.19;7985221;28;20037;-66
2021/05/10 02:34:31;;;;;;;2.63;1.20;;;;;;;19.56;34.54;99568.59;7983593;28;20034;-66
2021/05/10 02:38:23;;;;;;;3.95;1.00;;;;;;;19.53;34.45;99562.84;7983190;28;20038;-66
2021/05/10 02:42:14;;;;;;;2.25;0.98;;;;;;;19.50;34.53;99555.25;7989495;28;20041;-66
2021/05/10 02:46:04;;;;;;;3.92;1.20;;;;;;;19.44;34.90;99550.66;7978683;28;20095;-66
2021/05/10 02:49:55;;;;;;;1.45;0.80;;;;;;;19.44;34.87;99555.97;7980209;28;20052;-66
2021/05/10 02:53:45;;;;;;;6.70;0.98;;;;;;;19.41;34.87;99549.22;7979220;28;20044;-66
2021/05/10 02:57:37;;;;;;;0.85;0.77;;;;;;;19.37;34.71;99555.94;7977825;28;20055;-66
2021/05/10 03:01:27;;;;;;;1.80;1.10;;;;;;;19.35;34.92;99558.78;7977194;28;20030;-66
2021/05/10 03:05:19;;;;;;;3.80;0.75;;;;;;;19.30;34.58;99555.03;7985276;28;20116;-66
2021/05/10 03:09:09;;;;;;;0.85;0.80;;;;;;;19.25;34.83;99562.78;7985103;28;20378;-66
2021/05/10 03:13:00;;;;;;;2.03;0.90;;;;;;;19.19;35.12;99550.19;7983441;28;20741;-66
2021/05/10 03:16:50;;;;;;;1.90;0.80;;;;;;;19.11;35.03;99551.13;7981832;28;20136;-66
2021/05/10 03:20:41;;;;;;;1.90;0.90;;;;;;;19.09;35.20;99563.81;7981816;28;20087;-66
2021/05/10 03:24:32;;;;;;;1.08;0.98;;;;;;;19.05;34.88;99577.66;7978818;28;20453;-66
2021/05/10 03:28:22;;;;;;;1.60;0.95;;;;;;;19.00;35.02;99567.59;7979729;28;20490;-66
2021/05/10 03:32:13;;;;;;;0.88;0.70;;;;;;;18.99;35.21;99565.91;7977254;28;20041;-66
2021/05/10 03:36:04;;;;;;;1.13;0.68;;;;;;;18.98;34.98;99585.56;7979281;28;20082;-66
2021/05/10 03:39:54;;;;;;;1.33;0.80;;;;;;;18.96;34.97;99595.56;7983043;28;20778;-66
2021/05/10 03:43:45;;;;;;;0.88;0.70;;;;;;;18.96;34.94;99584.94;7976472;28;20120;-66
2021/05/10 03:47:40;;;;;;;7.43;1.60;;;;;;;18.96;35.14;99581.44;7983161;28;20574;-67
2021/05/10 03:51:31;;;;;;;3.35;1.45;;;;;;;18.96;34.97;99594.75;7975622;28;20041;-66
2021/05/10 03:55:23;;;;;;;5.57;0.90;;;;;;;18.98;35.03;99592.75;7988325;28;20054;-66
2021/05/10 03:59:14;;;;;;;2.40;0.80;;;;;;;18.98;35.36;99588.22;7981127;28;20120;-66
2021/05/10 04:03:06;;;;;;;5.13;0.90;;;;;;;18.97;35.53;99588.41;7979476;28;20049;-66
2021/05/10 04:11:21;;;;;;;1.00;0.90;;;;;;;18.94;35.36;99592.25;7968336;28;20169;-66
2021/05/10 04:15:12;;;;;;;3.72;1.02;;;;;;;18.89;35.45;99589.34;7976619;28;20693;-66
2021/05/10 04:19:03;;;;;;;1.52;0.90;;;;;;;18.91;35.75;99601.44;7976904;28;20048;-66
2021/05/10 04:22:53;;;;;;;6.20;0.90;;;;;;;18.92;35.54;99608.44;7975294;28;20112;-66
2021/05/10 04:26:44;;;;;;;3.10;0.82;;;;;;;18.89;35.57;99614.09;7982066;28;20120;-66
2021/05/10 04:30:35;;;;;;;1.85;1.17;;;;;;;18.91;35.72;99628.06;7982591;28;20047;-66
2021/05/10 04:34:25;;;;;;;2.28;0.82;;;;;;;18.91;35.71;99638.72;7981683;28;20104;-66
2021/05/10 04:38:16;;;;;;;4.05;1.55;;;;;;;18.91;35.79;99649.34;7979744;28;20755;-66
2021/05/10 04:42:06;;;;;;;2.22;1.20;;;;;;;18.90;35.59;99642.38;7982336;28;20033;-66
2021/05/10 04:45:59;;;;;;;1.10;0.93;;;;;;;18.91;35.85;99653.84;7973849;28;20045;-66
2021/05/10 04:49:50;;;;;;;0.70;0.70;;;;;;;18.92;35.95;99660.81;7976546;28;20607;-66
2021/05/10 04:53:41;;;;;;;2.58;0.90;;;;;;;18.91;35.86;99656.50;7984777;28;20566;-66
2021/05/10 04:57:32;;;;;;;4.07;1.15;;;;;;;18.87;35.91;99669.34;7982560;28;20033;-66
2021/05/10 05:01:22;;;;;;;3.97;0.90;;;;;;;18.89;36.22;99677.16;7981611;28;20041;-66
2021/05/10 05:05:14;;;;;;;2.08;0.80;;;;;;;18.90;35.98;99684.13;7980817;28;20037;-66
2021/05/10 05:09:04;;;;;;;9.35;1.50;;;;;;;18.92;36.20;99692.75;7986578;28;20033;-66
2021/05/10 05:12:55;;;;;;;4.75;1.25;;;;;;;18.89;36.36;99677.97;7997981;28;20036;-66
2021/05/10 05:16:45;;;;;;;1.85;1.05;;;;;;;18.87;36.18;99695.97;7984387;28;20677;-66
2021/05/10 05:20:37;;;;;;;5.53;1.45;;;;;;;18.84;36.34;99706.97;7982646;28;20475;-66
2021/05/10 05:24:28;;;;;;;4.10;0.82;;;;;;;18.85;36.07;99716.59;7991022;28;20017;-66
2021/05/10 05:28:19;;;;;;;2.10;0.80;;;;;;;18.85;36.32;99732.56;7984759;28;20405;-66
2021/05/10 05:32:10;;;;;;;15.60;1.65;;;;;;;18.88;36.54;99739.38;7983624;28;20532;-66
2021/05/10 05:36:00;;;;;;;2.88;1.70;;;;;;;18.88;36.36;99748.19;7982965;28;20037;-66
2021/05/10 05:39:51;;;;;;;2.88;1.33;;;;;;;18.90;36.73;99746.16;7990864;28;20113;-66
2021/05/10 05:43:42;;;;;;;2.08;0.93;;;;;;;18.93;36.32;99726.34;7982510;28;20051;-66
2021/05/10 05:47:33;;;;;;;3.13;0.90;;;;;;;18.91;36.70;99721.19;7979290;28;20049;-66
2021/05/10 05:51:24;;;;;;;0.70;0.70;;;;;;;18.92;36.47;99711.38;7987737;28;20025;-66
2021/05/10 05:55:15;;;;;;;1.42;0.90;;;;;;;18.89;36.74;99715.22;7978868;28;20033;-66
2021/05/10 05:59:05;;;;;;;4.50;1.23;;;;;;;18.83;36.77;99717.78;7985484;28;20296;-66
2021/05/10 06:02:56;;;;;;;2.42;0.90;;;;;;;18.81;36.77;99730.47;7984226;28;20449;-66
2021/05/10 06:06:47;;;;;;;8.25;1.80;;;;;;;18.84;36.79;99754.03;7984208;28;20034;-66
2021/05/10 06:10:38;;;;;;;1.80;1.30;;;;;;;18.89;37.09;99771.09;7983959;28;20025;-66
2021/05/10 06:14:28;;;;;;;5.07;1.63;;;;;;;18.97;37.00;99804.81;7982222;28;20098;-66
2021/05/10 06:18:19;;;;;;;3.97;1.60;;;;;;;19.00;37.10;99807.09;7980413;28;20517;-66
2021/05/10 06:22:10;;;;;;;1.65;1.10;;;;;;;19.03;37.01;99814.72;7976087;28;20060;-66
2021/05/10 06:26:01;;;;;;;5.57;1.25;;;;;;;19.04;37.25;99812.88;7979677;28;20839;-66
2021/05/10 06:29:52;;;;;;;2.28;1.10;;;;;;;19.04;37.30;99816.38;7978609;28;20041;-66
2021/05/10 06:33:44;;;;;;;8.90;0.90;;;;;;;19.08;37.23;99822.97;7986049;28;20036;-66
2021/05/10 06:37:35;;;;;;;1.25;0.90;;;;;;;19.21;37.01;99831.22;7985560;28;20064;-66
2021/05/10 06:41:26;;;;;;;4.00;1.05;;;;;;;19.30;37.49;99829.28;7999238;28;20037;-66
2021/05/10 06:45:16;;;;;;;5.93;1.67;;;;;;;19.45;37.10;99842.59;7982806;28;20041;-66
2021/05/10 06:49:07;;;;;;;2.45;1.45;;;;;;;19.59;37.17;99815.97;7982341;28;20116;-66
2021/05/10 06:52:58;;;;;;;2.45;0.80;;;;;;;19.80;37.22;99829.38;7980290;28;20127;-66
2021/05/10 06:56:48;;;;;;;1.27;0.68;;;;;;;19.97;36.83;99807.88;7979362;28;20052;-66
2021/05/10 07:00:39;;;;;;;1.92;0.90;;;;;;;20.15;37.03;99822.41;7977992;28;20037;-66
2021/05/10 07:04:30;;;;;;;1.40;0.70;;;;;;;20.34;36.94;99836.16;7979981;28;20355;-67
2021/05/10 07:08:20;;;;;;;1.70;0.70;;;;;;;20.45;36.75;99852.47;7977926;28;20175;-66
2021/05/10 07:12:12;;;;;;;5.50;1.02;;;;;;;20.55;36.68;99841.53;7989806;28;20060;-66
2021/05/10 07:16:03;;;;;;;1.52;0.80;;;;;;;20.71;36.83;99852.78;7982138;28;20144;-66
2021/05/10 07:19:53;;;;;;;2.08;0.95;;;;;;;20.75;36.28;99884.41;7980689;28;20041;-66
2021/05/10 07:23:44;;;;;;;1.52;0.80;;;;;;;20.64;36.21;99896.41;7978520;28;20025;-66
2021/05/10 07:27:35;;;;;;;7.78;0.80;;;;;;;20.50;36.28;99911.44;7982185;28;20128;-66
2021/05/10 07:31:25;;;;;;;0.50;0.50;;;;;;;20.31;36.13;99928.03;7979494;28;20127;-66
2021/05/10 07:35:16;;;;;;;0.52;0.52;;;;;;;20.12;36.42;99933.94;7980456;28;20113;-66
2021/05/10 07:39:07;;;;;;;0.60;0.60;;;;;;;19.96;36.48;99918.97;7979736;28;20116;-66
2021/05/10 07:42:59;;;;;;;0.45;0.45;;;;;;;19.80;36.48;99909.31;7978666;28;20518;-66
2021/05/10 07:46:49;;;;;;;0.50;0.50;;;;;;;19.73;36.49;99936.84;7977396;28;20154;-66
2021/05/10 07:50:40;;;;;;;0.60;0.45;;;;;;;19.63;36.37;99958.47;7976949;28;20673;-66
2021/05/10 07:54:31;;;;;;;3.00;0.73;;;;;;;19.62;36.72;99971.94;7976348;28;20030;-66
2021/05/10 07:58:25;;;;;;;0.50;0.50;;;;;;;19.53;36.58;99978.34;7976574;28;20099;-66
2021/05/10 08:02:18;;;;;;;0.55;0.55;;;;;;;19.50;37.00;99968.06;7981668;28;20040;-66
2021/05/10 08:06:08;;;;;;;0.50;0.50;;;;;;;19.53;36.81;99967.69;7981238;28;20045;-66
2021/05/10 08:09:59;;;;;;;0.77;0.65;;;;;;;19.60;37.11;99953.47;7981596;28;20041;-66
2021/05/10 08:13:50;;;;;;;0.47;0.47;;;;;;;19.68;36.75;99961.38;7980333;28;20045;-66
2021/05/10 08:17:40;;;;;;;1.30;0.60;;;;;;;19.71;36.90;99984.19;7973340;28;20049;-66
2021/05/10 08:21:31;;;;;;;1.00;0.70;;;;;;;19.68;37.12;100006.66;7977939;28;20527;-66
2021/05/10 08:25:22;;;;;;;0.50;0.50;;;;;;;19.65;37.31;100009.72;7988225;28;20573;-66
2021/05/10 08:29:13;;;;;;;1.80;0.70;;;;;;;19.64;37.25;100020.56;7977112;28;20045;-66
2021/05/10 08:33:03;;;;;;;0.50;0.50;;;;;;;19.65;37.36;100003.53;7974487;28;20037;-66
2021/05/10 08:36:55;;;;;;;0.40;0.40;;;;;;;19.77;37.42;100005.59;7975245;28;20041;-66
2021/05/10 08:40:47;;;;;;;2.00;0.70;;;;;;;19.97;37.50;100003.25;7975771;28;20481;-66
2021/05/10 08:44:37;;;;;;;0.60;0.60;;;;;;;20.22;37.24;99985.13;7982555;28;20041;-66
2021/05/10 08:48:28;;;;;;;0.43;0.40;;;;;;;20.35;37.31;100024.50;7981096;28;20541;-66
2021/05/10 08:52:18;;;;;;;1.60;0.52;;;;;;;20.36;37.23;100047.50;7980331;28;20108;-66
2021/05/10 08:56:09;;;;;;;0.50;0.50;;;;;;;20.30;36.75;100051.75;7973770;28;20056;-66
2021/05/10 09:00:00;;;;;;;0.40;0.40;;;;;;;20.13;36.90;100056.41;7980436;28;20037;-66
2021/05/10 09:03:51;;;;;;;0.50;0.50;;;;;;;19.97;36.91;100029.91;7974649;28;20050;-65
2021/05/10 09:07:42;;;;;;;0.68;0.52;;;;;;;19.87;36.35;100041.84;7977238;28;20103;-66
2021/05/10 09:11:34;;;;;;;0.65;0.65;;;;;;;19.75;36.58;100070.75;7978953;28;20661;-66
2021/05/10 09:15:28;;;;;;;1.50;0.50;;;;;;;19.69;36.63;100090.09;7975242;28;20041;-66
2021/05/10 09:19:19;;;;;;;2.67;0.60;;;;;;;19.60;36.72;100080.53;7975126;28;20112;-66
2021/05/10 09:23:12;;;;;;;2.53;0.70;;;;;;;19.56;37.03;100080.03;7983289;28;20040;-66
2021/05/10 09:27:23;;;;;;;0.45;0.45;;;;;;;19.52;36.87;100085.91;7989728;28;20044;-66
2021/05/10 09:31:13;;;;;;;1.90;0.60;;;;;;;19.59;36.99;100085.03;7973971;28;20041;-66
2021/05/10 09:35:25;;;;;;;0.40;0.40;;;;;;;19.61;36.85;100084.84;7979229;28;20648;-66
2021/05/10 09:39:30;;;;;;;1.38;0.70;;;;;;;19.68;37.11;100094.59;7977604;28;20071;-65
2021/05/10 09:43:25;;;;;;;0.43;0.30;;;;;;;19.74;37.16;100109.06;7982701;28;20037;-65
2021/05/10 09:47:21;;;;;;;1.55;0.93;;;;;;;19.78;36.78;100111.19;7982709;28;20128;-67
2021/05/10 09:51:14;;;;;;;0.85;0.47;;;;;;;19.79;36.72;100114.69;7981403;28;20037;-66
2021/05/10 09:55:06;;;;;;;4.28;0.60;;;;;;;19.79;36.79;100141.31;7981631;28;20039;-66
2021/05/10 09:58:59;;;;;;;0.50;0.50;;;;;;;19.75;37.15;100142.69;7981873;28;20029;-65
2021/05/10 10:02:50;;;;;;;1.58;0.60;;;;;;;19.65;37.06;100155.41;7980980;28;20413;-66
2021/05/10 10:06:41;;;;;;;1.00;0.70;;;;;;;19.53;37.02;100159.50;7986674;28;20777;-66
2021/05/10 10:10:32;;;;;;;1.30;0.60;;;;;;;19.44;37.28;100161.38;7971572;28;20041;-66
2021/05/10 10:14:22;;;;;;;0.93;0.55;;;;;;;19.39;37.34;100165.59;7985873;28;20423;-65
2021/05/10 10:18:22;;;;;;;6.20;0.93;;;;;;;19.29;37.28;100187.94;7983540;28;20865;-66
2021/05/10 10:22:15;;;;;;;1.58;0.70;;;;;;;19.20;37.45;100188.13;7983777;28;20055;-65
2021/05/10 10:26:11;;;;;;;0.55;0.55;;;;;;;19.13;37.34;100192.47;7981828;28;20039;-65
2021/05/10 10:30:02;;;;;;;5.57;0.70;;;;;;;19.05;37.60;100209.31;7977232;28;20029;-65
2021/05/10 10:34:12;;;;;;;0.50;0.50;;;;;;;18.93;37.67;100195.53;7979401;28;20037;-65
2021/05/10 10:38:04;;;;;;;1.05;0.73;;;;;;;18.88;37.77;100184.59;7971402;28;20437;-66
2021/05/10 10:42:12;;;;;;;0.65;0.60;;;;;;;18.92;38.08;100188.56;7980687;28;20041;-65
2021/05/10 10:46:22;;;;;;;0.55;0.52;;;;;;;18.98;38.16;100196.88;7967088;28;20033;-65
2021/05/10 10:50:18;;;;;;;1.33;0.75;;;;;;;19.10;38.47;100203.47;7983799;28;20048;-65
2021/05/10 10:54:24;;;;;;;1.52;0.70;;;;;;;19.26;38.67;100206.09;7977647;28;20084;-65
2021/05/10 10:58:15;;;;;;;0.55;0.43;;;;;;;19.47;38.33;100232.13;7992725;28;20116;-66
2021/05/10 11:02:24;;;;;;;2.17;0.60;;;;;;;19.65;38.33;100203.38;7976665;28;20045;-66
2021/05/10 11:06:15;;;;;;;0.50;0.50;;;;;;;19.85;38.73;100206.44;7983164;28;20041;-66
2021/05/10 11:10:06;;;;;;;1.00;0.90;;;;;;;20.02;38.21;100215.97;7982518;28;20029;-65
2021/05/10 11:13:59;;;;;;;0.95;0.80;;;;;;;20.16;38.32;100215.19;7980223;28;20040;-66
2021/05/10 11:17:54;;;;;;;1.25;0.95;;;;;;;20.24;38.02;100225.81;7978516;28;20049;-66
2021/05/10 11:21:44;;;;;;;0.75;0.60;;;;;;;20.23;37.96;100222.31;7978592;28;20029;-66
2021/05/10 11:25:37;;;;;;;0.77;0.77;;;;;;;20.24;37.75;100229.31;7977982;28;20090;-66
2021/05/10 11:29:28;;;;;;;0.90;0.70;;;;;;;20.18;38.14;100227.34;7975564;28;20025;-66
2021/05/10 11:33:51;;;;;;;2.15;1.17;;;;;;;20.06;37.62;100247.44;7982653;28;20040;-66
2021/05/10 11:37:41;;;;;;;2.17;1.15;;;;;;;19.95;37.53;100255.84;7983003;28;20046;-65
2021/05/10 11:41:36;;;;;;;7.80;0.75;;;;;;;19.85;37.83;100276.56;7983974;28;20090;-66
2021/05/10 11:45:26;;;;;;;1.17;0.60;;;;;;;19.67;37.73;100311.44;7980994;28;20056;-66
2021/05/10 11:49:25;;;;;;;2.10;0.77;;;;;;;19.40;37.93;100308.38;7979566;28;20029;-66
2021/05/10 11:53:27;;;;;;;2.20;0.82;;;;;;;19.16;38.18;100334.09;7985182;28;20041;-66
2021/05/10 11:57:30;;;;;;;1.98;1.27;;;;;;;18.97;38.38;100347.75;7982646;28;20490;-66
2021/05/10 12:01:35;;;;;;;0.90;0.70;;;;;;;18.77;38.15;100362.41;7976751;28;20067;-66
2021/05/10 12:05:30;;;;;;;1.88;0.95;;;;;;;18.66;38.58;100373.34;7977050;28;20053;-66
2021/05/10 12:09:49;;;;;;;1.60;1.10;;;;;;;18.45;38.55;100364.03;7984546;28;20039;-66
2021/05/10 12:13:40;;;;;;;2.20;1.02;;;;;;;18.33;38.69;100365.31;7986847;28;20046;-66
2021/05/10 12:17:31;;;;;;;1.17;0.98;;;;;;;18.21;38.81;100366.59;7987534;28;20052;-66
2021/05/10 12:21:21;;;;;;;0.80;0.80;;;;;;;18.13;39.03;100369.25;7981557;28;20112;-66
2021/05/10 12:25:24;;;;;;;1.48;0.80;;;;;;;18.06;39.21;100378.88;7974739;28;20043;-66
2021/05/10 12:29:15;;;;;;;0.95;0.90;;;;;;;18.02;39.55;100366.06;7972888;28;20044;-65
2021/05/10 12:33:08;;;;;;;1.67;1.10;;;;;;;18.04;39.28;100367.56;7977394;28;20045;-66
2021/05/10 12:36:59;;;;;;;1.67;0.88;;;;;;;18.08;39.46;100371.56;7975680;28;20634;-65
2021/05/10 12:40:50;;;;;;;0.70;0.70;;;;;;;18.15;39.20;100374.41;7977883;28;20033;-65
2021/05/10 12:44:41;;;;;;;3.83;1.20;;;;;;;18.19;39.33;100373.91;7976581;28;20044;-66
2021/05/10 12:48:43;;;;;;;1.00;0.80;;;;;;;18.20;39.01;100377.41;7974960;28;20103;-66
2021/05/10 12:52:48;;;;;;;0.82;0.57;;;;;;;18.21;38.92;100374.59;7975594;28;20037;-65
2021/05/10 12:56:43;;;;;;;0.65;0.55;;;;;;;18.33;38.72;100375.94;7974144;28;20033;-65
2021/05/10 13:00:37;;;;;;;2.30;0.90;;;;;;;18.43;38.74;100370.50;7981519;28;20037;-66
2021/05/10 13:04:28;;;;;;;4.38;1.13;;;;;;;18.50;38.87;100352.06;7981479;28;20065;-65
2021/05/10 13:08:47;;;;;;;1.17;0.60;;;;;;;18.56;38.31;100332.78;7979806;28;20033;-65
2021/05/10 13:12:48;;;;;;;2.95;0.80;;;;;;;18.71;38.08;100341.75;7987157;28;20564;-66
2021/05/10 13:33:08;;;;;;;2.50;1.05;;;;;;;19.26;37.78;100344.56;7980114;28;20439;-65
2021/05/10 13:37:07;;;;;;;1.90;0.70;;;;;;;19.44;37.86;100346.97;7979703;28;20108;-65
2021/05/10 13:41:04;;;;;;;0.85;0.70;;;;;;;19.59;37.67;100343.47;7987232;28;20090;-65
2021/05/10 13:44:54;;;;;;;1.63;0.85;;;;;;;19.70;37.39;100342.25;7986510;28;20029;-66
2021/05/10 13:48:45;;;;;;;1.67;1.02;;;;;;;19.81;37.23;100339.19;7983301;28;20037;-66
2021/05/10 13:52:36;;;;;;;4.32;1.17;;;;;;;19.84;37.42;100344.19;7980965;28;20049;-65
2021/05/10 13:56:27;;;;;;;1.05;0.70;;;;;;;19.90;37.31;100335.50;7981875;28;20466;-65
2021/05/10 14:00:21;;;;;;;1.63;0.77;;;;;;;19.97;37.19;100344.44;7982538;28;20036;-65
2021/05/10 14:04:12;;;;;;;1.00;0.80;;;;;;;20.02;37.68;100349.25;7981863;28;20478;-65
2021/05/10 14:08:03;;;;;;;1.85;1.00;;;;;;;20.10;37.38;100346.56;7980647;28;20037;-66
2021/05/10 14:11:54;;;;;;;3.25;0.93;;;;;;;20.16;37.04;100340.53;7979977;28;20116;-66
2021/05/10 14:15:44;;;;;;;3.25;1.00;;;;;;;20.25;36.98;100350.16;7978060;28;20120;-66
2021/05/10 14:19:37;;;;;;;3.15;0.70;;;;;;;20.25;36.97;100350.97;7985238;28;20091;-66
2021/05/10 14:23:28;;;;;;;5.13;1.25;;;;;;;20.27;36.97;100353.44;7984678;28;20042;-66
2021/05/10 14:27:19;;;;;;;4.55;0.90;;;;;;;20.31;37.08;100362.75;7983993;28;20036;-65
2021/05/10 14:31:12;;;;;;;2.38;0.95;;;;;;;20.33;37.07;100355.44;7987687;28;20097;-66
2021/05/10 14:35:03;;;;;;;2.42;0.80;;;;;;;20.34;36.84;100359.75;7982992;28;20021;-66
2021/05/10 14:38:54;;;;;;;1.13;1.05;;;;;;;20.38;36.75;100358.41;7982543;28;20040;-66
2021/05/10 14:42:44;;;;;;;1.35;1.05;;;;;;;20.38;36.81;100346.91;7985604;28;20111;-66
2021/05/10 14:46:35;;;;;;;3.20;1.05;;;;;;;20.34;36.86;100341.09;7979741;28;20599;-66
2021/05/10 14:50:25;;;;;;;3.00;1.20;;;;;;;20.34;37.06;100351.75;7977798;28;20056;-66
2021/05/10 14:54:16;;;;;;;2.28;0.90;;;;;;;20.35;36.71;100348.06;7978094;28;20040;-66
2021/05/10 14:58:07;;;;;;;1.10;1.00;;;;;;;20.33;36.68;100333.25;7976764;28;20027;-66
2021/05/10 15:01:57;;;;;;;2.72;1.00;;;;;;;20.31;36.99;100340.59;7962684;28;20103;-66
2021/05/10 15:05:48;;;;;;;0.80;0.60;;;;;;;20.27;36.88;100338.28;7968123;28;20032;-66
2021/05/10 15:09:39;;;;;;;1.13;0.70;;;;;;;20.27;36.61;100334.78;7979848;28;20037;-65
2021/05/10 15:13:29;;;;;;;1.70;0.77;;;;;;;20.25;36.52;100336.81;7976258;28;20037;-66
2021/05/10 15:17:20;;;;;;;2.08;0.70;;;;;;;20.24;36.88;100349.31;7979896;28;20041;-65
2021/05/10 15:21:11;;;;;;;1.95;1.13;;;;;;;20.25;36.58;100334.97;7976538;28;20039;-66
2021/05/10 15:25:02;;;;;;;1.38;0.85;;;;;;;20.24;36.57;100332.47;7973148;28;20033;-65
2021/05/10 15:28:52;;;;;;;1.00;0.70;;;;;;;20.24;37.08;100337.81;7973718;28;20033;-66
2021/05/10 15:32:43;;;;;;;2.08;0.60;;;;;;;20.19;36.88;100330.34;7972697;28;20052;-66
2021/05/10 15:36:34;;;;;;;1.15;0.63;;;;;;;20.18;37.16;100344.66;7976392;28;20032;-66
2021/05/10 15:40:25;;;;;;;1.08;0.70;;;;;;;20.18;36.55;100343.84;7979672;28;20478;-66
2021/05/10 15:44:16;;;;;;;2.40;0.90;;;;;;;20.16;36.69;100349.38;7978593;28;20033;-65
2021/05/10 15:48:07;;;;;;;1.60;0.80;;;;;;;20.15;36.74;100347.69;7978172;28;20087;-66
2021/05/10 15:51:57;;;;;;;1.05;0.73;;;;;;;20.12;36.64;100342.72;7974791;28;20080;-65
2021/05/10 15:55:48;;;;;;;1.88;0.80;;;;;;;20.10;36.95;100344.72;7978304;28;20043;-66
2021/05/10 15:59:38;;;;;;;1.58;1.05;;;;;;;20.09;36.85;100334.25;7975939;28;20087;-65
2021/05/10 16:03:29;;;;;;;1.65;0.70;;;;;;;20.06;36.65;100330.09;7977824;28;20405;-66
2021/05/10 16:07:20;;;;;;;2.15;0.90;;;;;;;20.03;36.67;100309.09;7974714;28;20560;-66
2021/05/10 16:11:10;;;;;;;0.80;0.65;;;;;;;20.05;36.50;100312.44;7974618;28;20032;-66
2021/05/10 16:15:01;;;;;;;1.48;0.75;;;;;;;20.04;36.84;100320.59;7978838;28;20647;-65
2021/05/10 16:18:52;;;;;;;3.60;0.80;;;;;;;20.00;36.39;100312.13;7989388;28;20049;-66
2021/05/10 16:22:44;;;;;;;2.28;0.82;;;;;;;19.99;36.58;100314.97;7972316;28;20481;-66
2021/05/10 16:26:35;;;;;;;1.20;0.77;;;;;;;19.99;36.56;100320.31;7975563;28;20119;-66
2021/05/10 16:30:29;;;;;;;1.65;1.00;;;;;;;19.95;36.28;100303.81;7967649;28;20143;-65
2021/05/10 16:34:20;;;;;;;2.20;1.02;;;;;;;19.93;36.48;100307.69;7976171;28;20045;-66
2021/05/10 16:38:11;;;;;;;2.40;0.70;;;;;;;19.93;36.26;100297.84;7972056;28;20545;-73
2021/05/10 16:42:02;;;;;;;1.80;0.80;;;;;;;19.92;36.53;100298.03;7974895;28;20051;-73
2021/05/10 16:45:53;;;;;;;1.88;0.70;;;;;;;19.90;36.66;100306.19;7972488;28;20033;-73
2021/05/10 16:49:44;;;;;;;1.60;0.57;;;;;;;19.90;36.49;100303.53;7961782;28;20051;-73
2021/05/10 16:53:34;;;;;;;2.72;1.02;;;;;;;19.90;36.83;100310.69;7998446;28;20037;-72
2021/05/10 16:57:25;;;;;;;0.82;0.70;;;;;;;19.90;36.62;100300.03;7980502;28;20096;-70
2021/05/10 17:01:20;;;;;;;0.60;0.60;;;;;;;19.87;36.50;100300.38;7979317;28;20040;-65
2021/05/10 17:05:11;;;;;;;1.23;0.63;;;;;;;19.85;36.87;100300.53;7981256;28;20060;-74
2021/05/10 17:09:02;;;;;;;2.20;0.52;;;;;;;19.86;36.54;100315.53;7960661;28;20029;-65
2021/05/10 17:12:53;;;;;;;1.25;0.90;;;;;;;19.85;36.43;100313.88;7985078;28;20170;-71
2021/05/10 17:16:43;;;;;;;2.13;0.75;;;;;;;19.82;36.65;100331.03;7982861;28;20099;-68
2021/05/10 17:20:34;;;;;;;1.75;0.85;;;;;;;19.77;36.87;100327.19;7981521;28;20037;-72
2021/05/10 17:24:25;;;;;;;9.02;1.02;;;;;;;19.76;36.77;100325.56;7980602;28;20041;-73
2021/05/10 17:28:16;;;;;;;1.52;0.80;;;;;;;19.66;36.49;100330.25;7978472;28;20082;-73
2021/05/10 17:32:06;;;;;;;0.88;0.80;;;;;;;19.66;36.67;100324.94;7973556;28;20165;-73
2021/05/10 17:35:58;;;;;;;2.35;0.98;;;;;;;19.63;36.73;100331.44;7980545;28;20664;-73
2021/05/10 17:39:51;;;;;;;3.10;0.85;;;;;;;19.55;36.52;100335.97;7979884;28;20152;-72
2021/05/10 17:43:43;;;;;;;2.30;0.88;;;;;;;19.52;36.94;100334.47;7984585;28;20034;-72
2021/05/10 17:47:33;;;;;;;1.67;0.90;;;;;;;19.48;36.80;100343.81;7976591;28;20116;-72
2021/05/10 17:51:24;;;;;;;1.20;0.90;;;;;;;19.40;36.91;100345.66;7980517;28;20048;-72
2021/05/10 17:55:15;;;;;;;0.85;0.63;;;;;;;19.38;36.80;100355.69;7976607;28;20039;-72
2021/05/10 17:59:09;;;;;;;2.50;0.93;;;;;;;19.29;36.87;100346.88;7978699;28;20029;-71
2021/05/10 18:03:09;;;;;;;1.63;0.80;;;;;;;19.22;36.74;100348.56;7979399;28;20031;-73
2021/05/10 18:07:00;;;;;;;4.90;0.70;;;;;;;19.14;36.71;100352.00;7975936;28;20028;-74
2021/05/10 18:10:50;;;;;;;0.82;0.60;;;;;;;19.06;36.86;100344.03;7959838;28;20074;-73
2021/05/10 18:14:43;;;;;;;0.88;0.70;;;;;;;19.01;36.95;100356.22;7978324;28;20032;-73
2021/05/10 18:18:46;;;;;;;1.80;0.55;;;;;;;18.98;36.81;100360.03;7976229;28;20780;-68
2021/05/10 18:22:36;;;;;;;0.93;0.63;;;;;;;18.88;36.81;100352.25;7978084;28;20032;-70
2021/05/10 18:26:27;;;;;;;0.45;0.45;;;;;;;18.83;37.06;100351.91;7975854;28;20032;-69